Cognac-Châteaubernard (BA 709) Air Base

LFBG · Aquitania-Limosino-Poitou-Charentes, Francia

4 ottobre 2022

Tempo Codice Tempo metereologico Temp. Vista Base nuvolosa Vento METAR/SPECI
14:30
V
22 °C 10 km+ - Var Var 3 kt METAR LFBG 041230Z AUTO VRB03KT CAVOK 22/12 Q1021 NOSIG
14:00
V
22 °C 10 km+ - Var Var 2 kt METAR LFBG 041200Z AUTO VRB02KT CAVOK 22/12 Q1021 NOSIG
13:30
V
21 °C 10 km+ - Var Var 3 kt METAR LFBG 041130Z AUTO VRB03KT CAVOK 21/12 Q1022 NOSIG
13:00
V
20 °C 10 km+ - Var Var 3 kt METAR LFBG 041100Z AUTO VRB03KT CAVOK 20/13 Q1022 NOSIG
12:30
V
18 °C 10 km+ - Var Var 2 kt METAR LFBG 041030Z AUTO VRB02KT CAVOK 18/13 Q1022 NOSIG
12:00
V
16 °C 10 km+ - Var Var 2 kt METAR LFBG 041000Z AUTO VRB02KT 9999 FEW003 16/13 Q1022 NOSIG
11:30
L
14 °C 7 km - Var Var 2 kt METAR LFBG 040930Z AUTO VRB02KT 7000 VV/// 14/14 Q1022 BECMG NSC
11:00
L
13 °C 1,1 km - Var Var 2 kt METAR LFBG 040900Z AUTO VRB02KT 2200 1100 R23/1200U BR VV/// 13/13 Q1022 BECMG CAVOK
10:30
L
12 °C 300 m - Var Var 3 kt METAR LFBG 040830Z AUTO VRB03KT 0300 R23/0400N FG VV/// 12/12 Q1022 BECMG CAVOK
10:00
L
11 °C 350 m - Var Var 3 kt METAR LFBG 040800Z AUTO VRB03KT 0400 0350 R23/0450D FG VV/// 11/11 Q1022 BECMG CAVOK
09:30
L
11 °C 350 m - 090° 090° 3 kt METAR LFBG 040730Z AUTO 09003KT 0350 R23/0450D FG VV/// 11/10 Q1022 BECMG CAVOK
09:00
L
10 °C 400 m - 090° 090° 2 kt METAR LFBG 040700Z AUTO 09002KT 0550 0400 R23/0600U FG VV/// 10/10 Q1021 BECMG CAVOK
08:30
L
10 °C 350 m - 050° 050° 3 kt METAR LFBG 040630Z AUTO 05003KT 0350 R23/0400N FG VV/// 10/10 Q1021 BECMG CAVOK
08:00
L
10 °C 650 m - Var 000° 0 kt METAR LFBG 040600Z AUTO 00000KT 0900 0650 R23/0800D FG VV/// 10/10 Q1021 TEMPO 0500 FG BECMG NSC
07:30
L
9 °C 350 m - Var 000° 0 kt METAR LFBG 040530Z AUTO 00000KT 0600 0350 R23/0450N FG VV/// 09/09 Q1021 BECMG NSC
07:00
L
9 °C 5 km - Var 000° 0 kt METAR LFBG 040500Z AUTO 00000KT 5000 BR VV/// 09/08 Q1021 TEMPO 0500 FG BECMG NSC
06:30
L
10 °C 600 m 300 ft Var 000° 0 kt METAR LFBG 040430Z AUTO 00000KT 8000 0600 R23/0750D BCFG OVC003 10/09 Q1020
06:00
L
11 °C 900 m 300 ft 060° 060° 2 kt METAR LFBG 040400Z AUTO 06002KT 5000 0900 R23/1200U BCFG BKN003 11/10 Q1020
05:30
I
11 °C 4,7 km - 040° 040° 2 kt METAR LFBG 040330Z AUTO 04002KT 9999 4700 NSC 11/11 Q1021
05:00
V
11 °C 9 km - 050° 050° 2 kt METAR LFBG 040300Z AUTO 05002KT 9000 NSC 11/10 Q1021
04:30
V
12 °C 10 km+ - Var 000° 0 kt METAR LFBG 040230Z AUTO 00000KT CAVOK 12/11 Q1021
04:00
V
13 °C 10 km+ - 030° 030° 1 kt METAR LFBG 040200Z AUTO 03001KT CAVOK 13/12 Q1021
03:30
V
13 °C 10 km+ - 030° 030° 1 kt METAR LFBG 040130Z AUTO 03001KT CAVOK 13/12 Q1021
03:00
V
13 °C 10 km+ - 010° 010° 2 kt METAR LFBG 040100Z AUTO 01002KT CAVOK 13/12 Q1021
02:30
V
14 °C 10 km+ - 010° 010° 3 kt METAR LFBG 040030Z AUTO 01003KT CAVOK 14/12 Q1021
02:00
V
14 °C 10 km+ - 020° 020° 2 kt METAR LFBG 040000Z AUTO 02002KT CAVOK 14/13 Q1021
01:30
V
14 °C 10 km+ - 020° 020° 2 kt METAR LFBG 032330Z AUTO 02002KT CAVOK 14/13 Q1022
01:00
V
15 °C 10 km+ - 020° 020° 3 kt METAR LFBG 032300Z AUTO 02003KT CAVOK 15/13 Q1022
00:30
V
15 °C 10 km+ - 020° 020° 4 kt METAR LFBG 032230Z AUTO 02004KT CAVOK 15/13 Q1022
00:00
V
16 °C 10 km+ - 030° 030° 4 kt METAR LFBG 032200Z AUTO 03004KT CAVOK 16/13 Q1022

3 ottobre 2022

Tempo Codice Tempo metereologico Temp. Vista Base nuvolosa Vento METAR/SPECI
23:30
V
16 °C 10 km+ - 040° 040° 4 kt METAR LFBG 032130Z AUTO 04004KT CAVOK 16/13 Q1022
23:00
V
17 °C 10 km+ - 030° 030° 4 kt METAR LFBG 032100Z AUTO 03004KT CAVOK 17/13 Q1022
22:30
V
17 °C 10 km+ - 020° 020° 5 kt METAR LFBG 032030Z AUTO 02005KT CAVOK 17/13 Q1022
22:00
V
17 °C 10 km+ - 020° 020° 6 kt METAR LFBG 032000Z AUTO 02006KT CAVOK 17/13 Q1022
21:30
V
18 °C 10 km+ - 010° 010° 6 kt METAR LFBG 031930Z AUTO 01006KT CAVOK 18/13 Q1022
21:00
V
18 °C 10 km+ - 020° 020° 5 kt METAR LFBG 031900Z AUTO 02005KT CAVOK 18/13 Q1022
20:30
V
19 °C 10 km+ - 020° 020° 6 kt METAR LFBG 031830Z AUTO 02006KT CAVOK 19/13 Q1022
20:00
V
20 °C 10 km+ - 030° 030° 5 kt METAR LFBG 031800Z AUTO 03005KT CAVOK 20/13 Q1022
19:30
V
21 °C 10 km+ - 040° 040° 8 kt METAR LFBG 031730Z AUTO 04008KT CAVOK 21/12 Q1022
19:00
V
22 °C 10 km+ 4.600 ft 050° 050° 8 kt METAR LFBG 031700Z AUTO 05008KT 9999 BKN046 22/12 Q1022 NOSIG
18:30
V
22 °C 10 km+ - 020° 020° 8 kt METAR LFBG 031630Z AUTO 02008KT 9999 FEW044 22/12 Q1022 NOSIG
18:00
V
22 °C 10 km+ - 060° 060° 8 kt METAR LFBG 031600Z AUTO 06008KT 9999 FEW047 22/11 Q1022 NOSIG
17:30
V
23 °C 10 km+ - 070° 070° 7 kt METAR LFBG 031530Z AUTO 07007KT 030V100 9999 FEW049 23/11 Q1022 NOSIG
17:00
V
23 °C 10 km+ - 050° 050° 5 kt METAR LFBG 031500Z AUTO 05005KT 010V090 9999 FEW001 23/11 Q1022 NOSIG
16:30
V
23 °C 10 km+ - 040° 040° 5 kt METAR LFBG 031430Z AUTO 04005KT 350V100 9999 FEW046 23/11 Q1022 NOSIG
16:00
V
23 °C 10 km+ - 060° 060° 8 kt METAR LFBG 031400Z AUTO 06008KT 9999 FEW043 23/12 Q1023 NOSIG
15:30
V
23 °C 10 km+ - 050° 050° 6 kt METAR LFBG 031330Z AUTO 05006KT 010V100 9999 FEW043 23/12 Q1023 NOSIG
15:00
V
22 °C 10 km+ - 040° 040° 9 kt METAR LFBG 031300Z AUTO 04009KT 350V070 CAVOK 22/12 Q1023 NOSIG
14:30
V
23 °C 10 km+ - 050° 050° 8 kt METAR LFBG 031230Z AUTO 05008KT 020V090 9999 FEW037 23/12 Q1024 NOSIG
14:00
V
22 °C 10 km+ - 030° 030° 8 kt METAR LFBG 031200Z AUTO 03008KT 350V070 CAVOK 22/12 Q1024 NOSIG
13:30
V
22 °C 10 km+ - 060° 060° 8 kt METAR LFBG 031130Z AUTO 06008KT 020V090 9999 FEW033 22/13 Q1024 NOSIG
13:00
V
21 °C 10 km+ - 040° 040° 7 kt METAR LFBG 031100Z AUTO 04007KT 010V070 CAVOK 21/13 Q1024 NOSIG
12:30
V
21 °C 10 km+ - 030° 030° 7 kt METAR LFBG 031030Z AUTO 03007KT 350V060 9999 SCT028 21/13 Q1025 NOSIG
12:00
V
20 °C 10 km+ - 080° 080° 6 kt METAR LFBG 031000Z AUTO 08006KT 030V110 CAVOK 20/13 Q1025 NOSIG
11:30
V
20 °C 10 km+ - 060° 060° 6 kt METAR LFBG 030930Z AUTO 06006KT 030V100 CAVOK 20/13 Q1025 NOSIG
11:00
V
19 °C 10 km+ - 080° 080° 6 kt METAR LFBG 030900Z AUTO 08006KT 050V110 9999 FEW049 19/13 Q1025 NOSIG
10:30
V
18 °C 10 km+ 5.200 ft 100° 100° 4 kt METAR LFBG 030830Z AUTO 10004KT 040V140 9999 FEW038 SCT045 OVC052 18/14 Q1025 NOSIG
10:00
V
16 °C 10 km+ 3.600 ft Var Var 3 kt METAR LFBG 030800Z AUTO VRB03KT 9999 OVC036 16/14 Q1025 NOSIG
09:30
V
15 °C 10 km+ 3.600 ft Var 000° 0 kt METAR LFBG 030730Z AUTO 00000KT 9999 OVC036 15/14 Q1025 NOSIG
09:00
V
14 °C 10 km+ 3.700 ft 080° 080° 2 kt METAR LFBG 030700Z AUTO 08002KT 9999 OVC037 14/14 Q1025 NOSIG
08:30
V
14 °C 10 km+ 5.400 ft Var 000° 0 kt METAR LFBG 030630Z AUTO 00000KT 9999 SCT038 OVC054 14/13 Q1025 NOSIG
08:00
V
14 °C 10 km+ - Var 000° 0 kt METAR LFBG 030600Z AUTO 00000KT CAVOK 14/13 Q1025 TEMPO 0500 FG VV///
07:30
V
13 °C 10 km+ 5.200 ft Var 000° 0 kt METAR LFBG 030530Z AUTO 00000KT 9999 FEW038 OVC052 13/13 Q1025 TEMPO 0500 FG VV///
07:00
V
13 °C 10 km+ 3.800 ft 120° 120° 1 kt METAR LFBG 030500Z AUTO 12001KT 9999 BKN038 OVC056 13/13 Q1025 TEMPO 0500 FG VV///
06:30
V
13 °C 10 km+ 3.800 ft 110° 110° 3 kt METAR LFBG 030430Z AUTO 11003KT 9999 OVC038 13/12 Q1025 TEMPO 0500 FG VV///
06:00
V
13 °C 10 km+ 3.800 ft 050° 050° 3 kt METAR LFBG 030400Z AUTO 05003KT 9999 BKN038 13/13 Q1025
05:30
V
13 °C 10 km+ 4.000 ft 050° 050° 4 kt METAR LFBG 030330Z AUTO 05004KT 9999 BKN040 13/13 Q1025
05:00
V
13 °C 10 km+ - Var Var 1 kt METAR LFBG 030300Z AUTO VRB01KT 9999 FEW043 13/13 Q1025
04:30
V
14 °C 10 km+ 4.400 ft Var 000° 0 kt METAR LFBG 030230Z AUTO 00000KT 9999 BKN044 14/13 Q1025
04:00
V
14 °C 10 km+ 4.500 ft 100° 100° 2 kt METAR LFBG 030200Z AUTO 10002KT 9999 OVC045 14/14 Q1025
03:30
V
14 °C 10 km+ 4.400 ft Var 000° 0 kt METAR LFBG 030130Z AUTO 00000KT 9999 BKN044 BKN066 14/13 Q1026
03:00
V
14 °C 10 km+ - Var 000° 0 kt METAR LFBG 030100Z AUTO 00000KT 9999 FEW040 SCT066 14/13 Q1026
02:30
V
15 °C 10 km+ - Var 000° 0 kt METAR LFBG 030030Z AUTO 00000KT 9999 FEW039 15/13 Q1026
02:00
V
16 °C 10 km+ - 300° 300° 5 kt METAR LFBG 030000Z AUTO 30005KT CAVOK 16/14 Q1025
01:30
V
16 °C 10 km+ - Var 000° 0 kt METAR LFBG 022330Z AUTO 00000KT CAVOK 16/14 Q1026
01:00
V
16 °C 10 km+ - Var Var 1 kt METAR LFBG 022300Z AUTO VRB01KT CAVOK 16/14 Q1026
00:30
V
17 °C 10 km+ - 250° 250° 4 kt METAR LFBG 022230Z AUTO 25004KT 9999 FEW038 17/14 Q1026
00:00
V
17 °C 10 km+ 3.900 ft 240° 240° 3 kt METAR LFBG 022200Z AUTO 24003KT 9999 OVC039 17/14 Q1026

2 ottobre 2022

Tempo Codice Tempo metereologico Temp. Vista Base nuvolosa Vento METAR/SPECI
23:30
V
17 °C 10 km+ 3.800 ft 260° 260° 3 kt METAR LFBG 022130Z AUTO 26003KT 9999 OVC038 17/13 Q1026
23:00
V
17 °C 10 km+ 3.900 ft 270° 270° 3 kt METAR LFBG 022100Z AUTO 27003KT 9999 OVC039 17/13 Q1026
22:30
V
17 °C 10 km+ 3.900 ft 280° 280° 3 kt METAR LFBG 022030Z AUTO 28003KT 9999 OVC039 17/13 Q1026
22:00
V
18 °C 10 km+ 4.000 ft 270° 270° 4 kt METAR LFBG 022000Z AUTO 27004KT 9999 OVC040 18/13 Q1026
21:30
V
18 °C 10 km+ 4.000 ft 250° 250° 3 kt METAR LFBG 021930Z AUTO 25003KT 9999 OVC040 18/13 Q1026
21:00
V
18 °C 10 km+ 4.200 ft 250° 250° 4 kt METAR LFBG 021900Z AUTO 25004KT 9999 OVC042 18/13 Q1025
20:30
V
18 °C 10 km+ 4.200 ft 240° 240° 4 kt METAR LFBG 021830Z AUTO 24004KT 9999 OVC042 18/13 Q1025
20:00
V
19 °C 10 km+ 4.200 ft 250° 250° 4 kt METAR LFBG 021800Z AUTO 25004KT 9999 OVC042 19/13 Q1025
19:30
V
19 °C 10 km+ 4.400 ft 270° 270° 4 kt METAR LFBG 021730Z AUTO 27004KT 9999 BKN044 19/12 Q1025
19:00
V
20 °C 10 km+ 4.400 ft 260° 260° 6 kt METAR LFBG 021700Z AUTO 26006KT 9999 FEW037 BKN044 20/12 Q1025
18:30
V
20 °C 10 km+ 3.100 ft 280° 280° 8 kt METAR LFBG 021630Z AUTO 28008KT 9999 BKN031 BKN038 OVC044 20/13 Q1025
18:00
V
20 °C 10 km+ 4.600 ft 260° 260° 10 kt METAR LFBG 021600Z AUTO 26010KT 9999 SCT029 OVC046 20/14 Q1025
17:30
V
21 °C 10 km+ 4.600 ft 260° 260° 11 kt METAR LFBG 021530Z AUTO 26011KT 9999 FEW033 OVC046 21/14 Q1025
17:00
V
21 °C 10 km+ 4.800 ft 260° 260° 13 kt METAR LFBG 021500Z AUTO 26013KT 220V290 9999 OVC048 21/13 Q1025
16:30
V
22 °C 10 km+ 4.800 ft 260° 260° 13 kt METAR LFBG 021430Z AUTO 26013KT 9999 FEW037 BKN048 22/12 Q1025
16:00
V
22 °C 10 km+ 4.500 ft 240° 240° 14 kt METAR LFBG 021400Z AUTO 24014KT 9999 SCT039 OVC045 22/13 Q1025
15:30
V
22 °C 10 km+ 3.800 ft 250° 250° 15 kt METAR LFBG 021330Z AUTO 25015KT 9999 BKN038 OVC045 22/12 Q1025
15:00
V
22 °C 10 km+ 4.300 ft 260° 260° 15 kt METAR LFBG 021300Z AUTO 26015KT 220V290 9999 BKN043 22/13 Q1025
Dati più vecchi

Noi e le terze parti seguiamo il tuo comportamento in internet sul nostro sito web con i cookie. Se continui, riteniamo che tu sia d'accordo con la nostra politica sui cookie. Per saperne di più